Time;durP1;ratioP1;P1;durP2;ratioP2;P2;SDS_P1;SDS_P2;PMS_P1;PMS_P2;Temp;Humidity;BMP_temperature;BMP_pressure;BME280_temperature;BME280_humidity;BME280_pressure;Samples;Min_cycle;Max_cycle;Signal;HPM_P1;HPM_P2
2023/05/12 00:01:28;;;;;;;24.88;14.90;;;11.70;99.90;;;;;;4966674;28;20042;-79
2023/05/12 00:03:53;;;;;;;15.40;12.02;;;11.70;99.90;;;;;;4983098;28;20086;-80
2023/05/12 00:06:20;;;;;;;17.90;12.68;;;11.70;99.90;;;;;;4967314;28;20137;-79
2023/05/12 00:08:45;;;;;;;16.83;13.07;;;11.70;99.90;;;;;;4982761;28;20400;-79
2023/05/12 00:11:11;;;;;;;21.70;14.65;;;11.70;99.90;;;;;;4977984;28;20080;-80
2023/05/12 00:13:37;;;;;;;16.88;13.02;;;11.70;99.90;;;;;;4952163;28;20054;-79
2023/05/12 00:16:03;;;;;;;26.23;17.70;;;11.70;99.90;;;;;;4964716;28;20505;-80
2023/05/12 00:18:29;;;;;;;17.90;14.27;;;11.70;99.90;;;;;;4978941;28;20097;-79
2023/05/12 00:20:55;;;;;;;22.15;16.15;;;11.70;99.90;;;;;;4958751;28;20046;-79
2023/05/12 00:23:21;;;;;;;26.17;17.25;;;11.80;99.90;;;;;;4980464;28;20065;-79
2023/05/12 00:25:48;;;;;;;19.90;15.27;;;11.70;99.90;;;;;;4963686;28;20498;-78
2023/05/12 00:28:13;;;;;;;27.02;19.13;;;11.80;99.90;;;;;;4981124;28;20057;-79
2023/05/12 00:30:39;;;;;;;25.73;19.30;;;11.80;99.90;;;;;;4982105;28;20046;-78
2023/05/12 00:33:05;;;;;;;25.58;19.60;;;11.80;99.90;;;;;;4979348;28;20046;-79
2023/05/12 00:35:31;;;;;;;26.35;19.70;;;11.80;99.90;;;;;;4965295;28;20056;-79
2023/05/12 00:37:57;;;;;;;30.17;23.20;;;11.70;99.90;;;;;;4963846;28;20050;-78
2023/05/12 00:40:22;;;;;;;30.20;21.88;;;11.80;99.90;;;;;;4975827;28;20046;-78
2023/05/12 00:42:48;;;;;;;35.70;24.77;;;11.80;99.90;;;;;;4963629;28;20038;-79
2023/05/12 00:45:14;;;;;;;39.95;26.92;;;11.80;99.90;;;;;;4984195;28;20054;-80
2023/05/12 00:47:40;;;;;;;39.30;27.42;;;11.80;99.90;;;;;;4996415;28;20074;-79
2023/05/12 00:50:09;;;;;;;39.38;27.02;;;11.80;99.90;;;;;;5000437;28;20101;-79
2023/05/12 00:52:35;;;;;;;45.92;31.00;;;11.80;99.90;;;;;;4971463;28;20046;-79
2023/05/12 00:55:02;;;;;;;39.65;28.23;;;11.80;99.90;;;;;;4965223;28;20045;-79
2023/05/12 00:57:28;;;;;;;43.97;30.23;;;11.70;99.90;;;;;;4980877;28;20488;-78
2023/05/12 00:59:54;;;;;;;45.35;31.67;;;11.80;99.90;;;;;;5006356;28;20224;-78
2023/05/12 01:02:24;;;;;;;57.10;35.55;;;11.80;99.90;;;;;;5002282;28;20184;-79
2023/05/12 01:04:50;;;;;;;51.42;34.25;;;11.80;99.90;;;;;;4986539;28;20034;-79
2023/05/12 01:07:24;;;;;;;59.15;37.17;;;11.80;99.90;;;;;;4985466;28;20624;-79
2023/05/12 01:09:57;;;;;;;57.55;36.92;;;11.80;99.90;;;;;;4986086;28;20057;-79
2023/05/12 01:12:24;;;;;;;99.53;44.33;;;11.80;99.90;;;;;;4986585;28;20039;-79
2023/05/12 01:14:52;;;;;;;91.72;44.55;;;11.80;99.90;;;;;;4983730;28;20039;-78
2023/05/12 01:17:31;;;;;;;69.00;38.67;;;11.80;99.90;;;;;;4961594;28;20050;-80
2023/05/12 01:20:00;;;;;;;56.42;36.72;;;11.80;99.90;;;;;;5002582;28;20050;-78
2023/05/12 01:22:30;;;;;;;75.50;42.33;;;11.80;99.90;;;;;;4968384;28;20631;-79
2023/05/12 01:25:08;;;;;;;58.85;37.80;;;11.80;99.90;;;;;;4962974;28;20069;-78
2023/05/12 01:27:38;;;;;;;60.42;37.97;;;11.80;99.90;;;;;;5001153;28;20074;-78
2023/05/12 01:30:05;;;;;;;66.40;41.55;;;11.80;99.90;;;;;;5012584;28;20042;-79
2023/05/12 01:32:31;;;;;;;73.50;41.08;;;11.80;99.90;;;;;;4960959;28;20049;-78
2023/05/12 01:34:57;;;;;;;66.93;40.88;;;11.80;99.90;;;;;;4980482;28;20034;-79
2023/05/12 01:37:25;;;;;;;69.13;41.67;;;11.80;99.90;;;;;;4979110;28;20108;-78
2023/05/12 01:39:54;;;;;;;81.75;44.40;;;11.80;99.90;;;;;;4983885;28;20046;-79
2023/05/12 01:42:20;;;;;;;76.45;45.00;;;11.80;99.90;;;;;;4967796;28;20042;-79
2023/05/12 01:44:46;;;;;;;78.72;43.72;;;11.80;99.90;;;;;;4972474;28;20088;-78
2023/05/12 01:47:14;;;;;;;85.60;44.92;;;11.80;99.90;;;;;;4983758;28;20089;-79
2023/05/12 01:49:40;;;;;;;96.97;47.67;;;11.80;99.90;;;;;;4979991;28;20061;-79
2023/05/12 01:52:06;;;;;;;92.22;47.20;;;11.80;99.90;;;;;;4984874;28;20341;-78
2023/05/12 01:54:32;;;;;;;98.47;49.03;;;11.80;99.90;;;;;;4976857;28;20552;-78
2023/05/12 01:56:58;;;;;;;86.60;47.25;;;11.80;99.90;;;;;;4979423;28;20042;-78
2023/05/12 01:59:23;;;;;;;100.68;49.88;;;11.80;99.90;;;;;;4977091;28;20833;-78
2023/05/12 02:01:49;;;;;;;91.35;47.70;;;11.80;99.90;;;;;;4975886;28;20561;-78
2023/05/12 02:04:15;;;;;;;108.25;50.33;;;11.90;99.90;;;;;;4977617;28;20045;-79
2023/05/12 02:06:41;;;;;;;97.03;49.10;;;11.80;99.90;;;;;;4977376;28;20067;-78
2023/05/12 02:09:09;;;;;;;102.13;49.13;;;11.90;99.90;;;;;;4960029;28;20038;-78
2023/05/12 02:11:36;;;;;;;93.15;48.72;;;11.90;99.90;;;;;;4976453;28;20137;-79
2023/05/12 02:14:02;;;;;;;87.57;48.53;;;11.90;99.90;;;;;;4978446;28;20604;-78
2023/05/12 02:16:27;;;;;;;93.30;48.58;;;11.90;99.90;;;;;;4964293;28;20050;-79
2023/05/12 02:18:58;;;;;;;95.95;48.38;;;11.90;99.90;;;;;;4969528;28;20366;-79
2023/05/12 02:21:23;;;;;;;;;;;11.90;99.90;;;;;;4998109;28;20092;-79
2023/05/12 02:23:49;;;;;;;90.93;48.30;;;11.90;99.90;;;;;;4979158;28;19956;-78
2023/05/12 02:26:15;;;;;;;86.07;46.70;;;11.90;99.90;;;;;;4985423;28;20120;-78
2023/05/12 02:28:41;;;;;;;90.18;48.22;;;11.90;99.90;;;;;;4982091;28;20045;-78
2023/05/12 02:31:07;;;;;;;83.45;48.40;;;11.90;99.90;;;;;;4984872;28;20084;-78
2023/05/12 02:33:33;;;;;;;82.00;47.63;;;12.00;99.90;;;;;;4999333;28;20574;-78
2023/05/12 02:35:59;;;;;;;82.32;48.55;;;12.00;99.90;;;;;;5001599;28;20041;-78
2023/05/12 02:38:26;;;;;;;88.78;48.92;;;12.00;99.90;;;;;;4999825;28;20204;-79
2023/05/12 02:40:52;;;;;;;94.22;50.53;;;12.00;99.90;;;;;;4980056;28;20034;-78
2023/05/12 02:43:17;;;;;;;82.88;47.35;;;12.10;99.90;;;;;;4968286;28;20038;-79
2023/05/12 02:45:44;;;;;;;84.45;48.22;;;12.00;99.90;;;;;;4999626;28;20449;-78
2023/05/12 02:48:16;;;;;;;87.10;49.80;;;12.00;99.90;;;;;;4982971;28;20153;-79
2023/05/12 02:50:42;;;;;;;92.55;51.17;;;12.10;99.90;;;;;;5002254;28;20267;-79
2023/05/12 02:53:08;;;;;;;89.28;49.72;;;12.00;99.90;;;;;;4981986;28;20136;-79
2023/05/12 02:55:37;;;;;;;83.95;49.78;;;12.10;99.90;;;;;;4982380;28;20053;-78
2023/05/12 02:58:02;;;;;;;86.43;50.33;;;12.10;99.90;;;;;;4990134;28;20492;-79
2023/05/12 03:00:28;;;;;;;88.68;51.22;;;12.10;99.90;;;;;;4964384;28;20057;-80
2023/05/12 03:02:54;;;;;;;91.68;50.50;;;12.10;99.90;;;;;;5004218;28;20042;-78
2023/05/12 03:05:23;;;;;;;91.63;51.60;;;12.10;99.90;;;;;;4965660;28;20046;-79
2023/05/12 03:07:49;;;;;;;85.38;52.30;;;12.10;99.90;;;;;;4994043;28;20037;-79
2023/05/12 03:10:16;;;;;;;94.88;51.50;;;12.10;99.90;;;;;;4981105;28;20050;-79
2023/05/12 03:12:42;;;;;;;94.45;53.75;;;12.10;99.90;;;;;;4974237;28;20054;-79
2023/05/12 03:15:08;;;;;;;103.07;54.15;;;12.10;99.90;;;;;;4964446;28;20499;-78
2023/05/12 03:17:35;;;;;;;98.05;54.33;;;12.10;99.90;;;;;;4982525;28;20054;-79
2023/05/12 03:20:02;;;;;;;100.93;54.92;;;12.10;99.90;;;;;;4982836;28;20054;-80
2023/05/12 03:22:28;;;;;;;110.20;54.10;;;12.10;99.90;;;;;;4998724;28;20105;-79
2023/05/12 03:24:53;;;;;;;94.32;51.53;;;12.10;99.90;;;;;;4932455;28;20049;-79
2023/05/12 03:27:19;;;;;;;103.65;54.47;;;12.10;99.90;;;;;;4982835;28;20052;-79
2023/05/12 03:29:48;;;;;;;101.25;53.13;;;12.10;99.90;;;;;;4976996;28;20541;-79
2023/05/12 03:32:14;;;;;;;107.95;54.78;;;12.00;99.90;;;;;;4982097;28;20073;-78
2023/05/12 03:34:40;;;;;;;106.63;54.55;;;12.10;99.90;;;;;;4964952;28;20053;-78
2023/05/12 03:37:06;;;;;;;100.32;53.88;;;12.10;99.90;;;;;;4998775;28;20484;-79
2023/05/12 03:39:32;;;;;;;107.03;55.10;;;12.10;99.90;;;;;;4979255;28;20045;-79
2023/05/12 03:42:00;;;;;;;100.38;54.53;;;12.10;99.90;;;;;;4958051;28;20176;-79
2023/05/12 03:44:26;;;;;;;106.35;56.08;;;12.10;99.90;;;;;;5006195;28;20589;-79
2023/05/12 03:46:52;;;;;;;118.82;57.53;;;12.10;99.90;;;;;;4966850;28;20136;-78
2023/05/12 03:49:18;;;;;;;107.82;55.97;;;12.10;99.90;;;;;;4982987;28;20124;-79
2023/05/12 03:51:43;;;;;;;104.28;56.55;;;12.10;99.90;;;;;;4981338;28;20058;-79
2023/05/12 03:54:09;;;;;;;109.13;56.25;;;12.10;99.90;;;;;;4973926;28;20054;-79
2023/05/12 03:56:35;;;;;;;100.03;54.10;;;12.10;99.90;;;;;;4981739;28;20050;-79
2023/05/12 03:59:01;;;;;;;114.75;56.08;;;12.10;99.90;;;;;;4960862;28;20042;-78
2023/05/12 04:01:27;;;;;;;123.38;59.83;;;12.10;99.90;;;;;;4993849;28;20095;-79
2023/05/12 04:03:53;;;;;;;116.55;57.47;;;12.20;99.90;;;;;;4952345;28;20111;-78
2023/05/12 04:06:19;;;;;;;105.05;56.05;;;12.20;99.90;;;;;;4984220;28;20057;-78
2023/05/12 04:08:45;;;;;;;98.05;52.10;;;12.20;99.90;;;;;;4978910;28;20039;-78
2023/05/12 04:11:10;;;;;;;95.60;53.92;;;12.20;99.90;;;;;;4966665;28;20181;-78
2023/05/12 04:13:36;;;;;;;95.13;53.88;;;12.20;99.90;;;;;;4981699;28;20493;-78
2023/05/12 04:16:02;;;;;;;91.85;53.70;;;12.20;99.90;;;;;;4964919;28;20050;-78
2023/05/12 04:18:31;;;;;;;99.38;53.03;;;12.20;99.90;;;;;;4987515;28;20054;-78
2023/05/12 04:20:57;;;;;;;83.97;51.35;;;12.20;99.90;;;;;;4978774;28;20566;-79
2023/05/12 04:23:23;;;;;;;87.80;49.53;;;12.20;99.90;;;;;;4963149;28;20089;-79
2023/05/12 04:25:49;;;;;;;88.05;50.42;;;12.20;99.90;;;;;;4962636;28;20046;-79
2023/05/12 04:28:15;;;;;;;88.95;51.80;;;12.20;99.90;;;;;;4975498;28;20575;-78
2023/05/12 04:30:41;;;;;;;95.38;53.58;;;12.20;99.90;;;;;;4959334;28;20135;-78
2023/05/12 04:33:10;;;;;;;93.78;52.80;;;12.20;99.90;;;;;;4963967;28;20050;-78
2023/05/12 04:35:36;;;;;;;87.43;51.00;;;12.20;99.90;;;;;;4966050;28;20058;-78
2023/05/12 04:38:02;;;;;;;97.35;52.65;;;12.20;99.90;;;;;;4978475;28;20043;-80
2023/05/12 04:40:28;;;;;;;98.72;54.22;;;12.20;99.90;;;;;;4980487;28;20046;-78
2023/05/12 04:42:54;;;;;;;92.63;51.78;;;12.20;99.90;;;;;;4965402;28;20145;-78
2023/05/12 04:45:23;;;;;;;90.22;51.78;;;12.20;99.90;;;;;;4981371;28;20129;-78
2023/05/12 04:47:48;;;;;;;93.80;53.10;;;12.30;99.90;;;;;;4981703;28;20064;-78
2023/05/12 04:50:14;;;;;;;95.72;51.67;;;12.30;99.90;;;;;;4979778;28;20635;-79
2023/05/12 04:52:40;;;;;;;96.45;53.10;;;12.30;99.90;;;;;;4960620;28;20101;-79
2023/05/12 04:55:06;;;;;;;89.30;52.15;;;12.30;99.90;;;;;;4981926;28;20161;-78
2023/05/12 04:57:32;;;;;;;97.97;52.58;;;12.30;99.90;;;;;;4997457;28;20038;-79
2023/05/12 04:59:58;;;;;;;101.30;53.85;;;12.30;99.90;;;;;;4966727;28;20115;-82
2023/05/12 05:02:25;;;;;;;97.35;53.38;;;12.30;99.90;;;;;;4981574;28;20046;-78
2023/05/12 05:04:54;;;;;;;104.03;52.78;;;12.30;99.90;;;;;;4962788;28;20093;-81
2023/05/12 05:07:19;;;;;;;102.43;55.03;;;12.30;99.90;;;;;;4982887;28;20070;-78
2023/05/12 05:09:45;;;;;;;94.32;51.70;;;12.30;99.90;;;;;;4975201;28;20127;-79
2023/05/12 05:12:11;;;;;;;99.18;53.65;;;12.30;99.90;;;;;;4964883;28;20046;-79
2023/05/12 05:14:37;;;;;;;101.38;53.72;;;12.30;99.90;;;;;;4961386;28;20142;-80
2023/05/12 05:17:05;;;;;;;103.78;55.38;;;12.30;99.90;;;;;;4981310;28;20856;-80
2023/05/12 05:19:31;;;;;;;93.22;53.22;;;12.30;99.90;;;;;;5002293;28;20057;-81
2023/05/12 05:21:57;;;;;;;97.47;53.60;;;12.30;99.90;;;;;;4961284;28;20049;-79
2023/05/12 05:24:23;;;;;;;94.13;52.05;;;12.30;99.90;;;;;;4982434;28;20085;-79
2023/05/12 05:26:49;;;;;;;102.00;53.83;;;12.30;99.90;;;;;;4967503;28;20052;-79
2023/05/12 05:29:14;;;;;;;90.80;51.53;;;12.30;99.90;;;;;;4950610;28;20077;-78
2023/05/12 05:31:43;;;;;;;97.65;54.60;;;12.30;99.90;;;;;;4968602;28;20168;-80
2023/05/12 05:34:09;;;;;;;98.97;53.83;;;12.40;99.90;;;;;;4966535;28;20416;-79
2023/05/12 05:36:35;;;;;;;98.00;51.60;;;12.40;99.90;;;;;;4940746;28;20264;-80
2023/05/12 05:39:00;;;;;;;104.35;55.40;;;12.40;99.90;;;;;;4981811;28;20041;-80
2023/05/12 05:41:26;;;;;;;96.88;53.53;;;12.40;99.90;;;;;;4966622;28;20057;-79
2023/05/12 05:43:52;;;;;;;97.28;53.88;;;12.40;99.90;;;;;;4965423;28;20099;-80
2023/05/12 05:46:18;;;;;;;98.60;54.38;;;12.40;99.90;;;;;;4983236;28;20428;-79
2023/05/12 05:48:43;;;;;;;97.20;53.50;;;12.50;99.90;;;;;;4982457;28;20424;-79
2023/05/12 05:51:10;;;;;;;104.32;54.50;;;12.50;99.90;;;;;;4968627;28;20061;-80
2023/05/12 05:53:36;;;;;;;93.70;52.42;;;12.50;99.90;;;;;;4967546;28;20061;-80
2023/05/12 05:56:02;;;;;;;92.93;53.58;;;12.50;99.90;;;;;;4978610;28;20546;-80
2023/05/12 05:58:28;;;;;;;106.82;54.92;;;12.50;99.90;;;;;;4957342;28;20042;-79
2023/05/12 06:00:54;;;;;;;107.60;57.53;;;12.60;99.90;;;;;;4951344;28;20052;-79
2023/05/12 06:03:19;;;;;;;89.82;51.30;;;12.60;99.90;;;;;;4974284;28;20045;-79
2023/05/12 06:05:45;;;;;;;98.50;55.30;;;12.60;99.90;;;;;;4986680;28;20447;-79
2023/05/12 06:08:12;;;;;;;95.50;53.55;;;12.60;99.90;;;;;;4984776;28;20526;-79
2023/05/12 06:10:38;;;;;;;91.43;53.63;;;12.60;99.90;;;;;;4997860;28;20057;-79
2023/05/12 06:13:07;;;;;;;96.23;54.27;;;12.60;99.90;;;;;;4977824;28;20046;-80
2023/05/12 06:15:35;;;;;;;93.78;52.88;;;12.70;99.90;;;;;;4966001;28;20054;-78
2023/05/12 06:18:01;;;;;;;94.82;54.53;;;12.70;99.90;;;;;;4978372;28;20485;-79
2023/05/12 06:20:30;;;;;;;90.28;52.95;;;12.80;99.90;;;;;;4969686;28;20066;-79
2023/05/12 06:22:56;;;;;;;93.30;54.25;;;12.70;99.90;;;;;;4943720;28;20038;-79
2023/05/12 06:25:22;;;;;;;91.28;54.97;;;12.70;99.90;;;;;;4994758;28;20042;-80
2023/05/12 06:27:52;;;;;;;92.10;53.25;;;12.70;99.90;;;;;;4964667;28;20045;-80
2023/05/12 06:30:18;;;;;;;80.05;51.30;;;12.70;99.90;;;;;;4977934;28;20072;-79
2023/05/12 06:32:44;;;;;;;83.60;51.80;;;12.70;99.90;;;;;;4978203;28;20053;-79
2023/05/12 06:35:10;;;;;;;105.22;58.72;;;12.80;99.90;;;;;;4978443;28;20444;-80
2023/05/12 06:37:37;;;;;;;89.68;54.58;;;12.80;99.90;;;;;;4978958;28;20425;-80
2023/05/12 06:40:03;;;;;;;87.38;52.15;;;12.80;99.90;;;;;;4959526;28;20078;-79
2023/05/12 06:42:29;;;;;;;85.15;52.10;;;12.80;99.90;;;;;;4980197;28;20461;-80
2023/05/12 06:44:55;;;;;;;80.90;50.85;;;12.80;99.90;;;;;;4945980;28;20031;-77
2023/05/12 06:47:23;;;;;;;84.75;53.47;;;12.80;99.90;;;;;;4970486;28;20355;-77
2023/05/12 06:49:49;;;;;;;83.03;52.58;;;12.80;99.90;;;;;;4978795;28;20084;-77
2023/05/12 06:52:15;;;;;;;89.72;54.50;;;12.80;99.90;;;;;;4979069;28;20513;-78
2023/05/12 06:54:42;;;;;;;86.57;51.78;;;12.80;99.90;;;;;;4963044;28;20077;-78
2023/05/12 06:57:08;;;;;;;91.80;55.30;;;12.80;99.90;;;;;;4979768;28;20062;-76
2023/05/12 06:59:34;;;;;;;87.70;53.50;;;12.80;99.90;;;;;;4963947;28;20042;-77
2023/05/12 07:02:00;;;;;;;82.15;52.30;;;12.80;99.90;;;;;;4978929;28;20170;-77
2023/05/12 07:04:26;;;;;;;80.15;50.83;;;12.80;99.90;;;;;;4978049;28;20162;-76
2023/05/12 07:06:52;;;;;;;82.97;50.95;;;12.80;99.90;;;;;;4963143;28;20066;-78
2023/05/12 07:09:18;;;;;;;88.25;54.35;;;12.80;99.90;;;;;;4995719;28;20145;-77
2023/05/12 07:11:43;;;;;;;106.68;57.92;;;12.90;99.90;;;;;;4961308;28;20058;-77
2023/05/12 07:14:12;;;;;;;85.90;53.97;;;12.90;99.90;;;;;;4961503;28;20128;-78
2023/05/12 07:16:38;;;;;;;89.28;54.17;;;12.90;99.90;;;;;;4979466;28;20137;-77
2023/05/12 07:19:05;;;;;;;84.72;54.05;;;12.90;99.90;;;;;;4977511;28;20047;-77
2023/05/12 07:21:31;;;;;;;78.63;51.97;;;12.90;99.90;;;;;;4976592;28;20054;-77
2023/05/12 07:23:57;;;;;;;82.32;51.92;;;12.90;99.90;;;;;;4977067;28;20054;-78
2023/05/12 07:26:23;;;;;;;78.55;51.80;;;12.90;99.90;;;;;;4954088;28;20105;-76
2023/05/12 07:28:49;;;;;;;77.28;51.95;;;12.90;99.90;;;;;;4970872;28;20054;-77
2023/05/12 07:31:15;;;;;;;78.30;52.80;;;12.90;99.90;;;;;;4958911;28;20042;-77
2023/05/12 07:33:41;;;;;;;70.28;48.72;;;13.00;99.90;;;;;;4977714;28;20053;-77
2023/05/12 07:36:07;;;;;;;70.10;49.00;;;13.00;99.90;;;;;;4975667;28;20049;-78
2023/05/12 07:38:34;;;;;;;76.28;51.25;;;13.10;99.90;;;;;;4979286;28;20043;-77
2023/05/12 07:41:00;;;;;;;59.13;46.03;;;13.10;99.90;;;;;;4975640;28;20053;-78
2023/05/12 07:43:28;;;;;;;60.70;46.15;;;13.20;99.90;;;;;;4994552;28;20409;-77
2023/05/12 07:45:55;;;;;;;63.88;47.88;;;13.20;99.90;;;;;;4968249;28;20052;-77
2023/05/12 07:48:27;;;;;;;62.03;48.10;;;13.30;99.90;;;;;;4976918;28;20081;-77
2023/05/12 07:50:53;;;;;;;63.35;48.38;;;13.30;99.90;;;;;;4977311;28;20557;-77
2023/05/12 07:53:18;;;;;;;65.72;48.88;;;13.40;99.90;;;;;;4976046;28;20125;-77
2023/05/12 07:55:47;;;;;;;60.97;45.65;;;13.40;99.90;;;;;;4978723;28;20191;-77
2023/05/12 07:58:13;;;;;;;59.28;47.42;;;13.50;99.90;;;;;;4991716;28;20073;-78
2023/05/12 08:00:39;;;;;;;57.45;46.80;;;13.50;99.90;;;;;;4962541;28;20050;-77
2023/05/12 08:03:08;;;;;;;57.83;46.40;;;13.50;99.90;;;;;;4985377;28;20039;-78
2023/05/12 08:05:33;;;;;;;59.03;47.15;;;13.60;99.90;;;;;;4977624;28;20056;-77
2023/05/12 08:08:00;;;;;;;59.38;49.30;;;13.70;99.90;;;;;;4955670;28;20573;-78
2023/05/12 08:10:28;;;;;;;54.78;47.22;;;13.80;99.90;;;;;;4978305;28;20049;-77
2023/05/12 08:12:55;;;;;;;54.65;47.10;;;13.80;99.90;;;;;;4976069;28;20085;-79
2023/05/12 08:15:21;;;;;;;50.15;44.65;;;13.90;99.90;;;;;;4977192;28;20060;-77
2023/05/12 08:17:47;;;;;;;49.28;43.90;;;14.00;99.90;;;;;;4989408;28;20054;-77
2023/05/12 08:20:13;;;;;;;51.10;45.30;;;14.00;99.90;;;;;;4961630;28;20577;-77
2023/05/12 08:22:42;;;;;;;53.38;45.15;;;14.10;99.90;;;;;;4989298;28;20616;-77
2023/05/12 08:25:11;;;;;;;50.17;44.88;;;14.10;99.90;;;;;;4961928;28;20618;-78
2023/05/12 08:27:37;;;;;;;51.28;45.70;;;14.20;99.90;;;;;;4971379;28;20104;-77
2023/05/12 08:30:03;;;;;;;50.30;44.80;;;14.30;99.90;;;;;;4946141;28;20058;-78
2023/05/12 08:32:29;;;;;;;47.58;42.50;;;14.30;99.90;;;;;;4956825;28;20050;-80
2023/05/12 08:34:55;;;;;;;48.13;42.97;;;14.40;99.90;;;;;;4957364;28;20490;-79
2023/05/12 08:37:21;;;;;;;50.95;45.38;;;14.40;99.90;;;;;;4975155;28;20061;-79
2023/05/12 08:39:46;;;;;;;50.67;45.25;;;14.50;99.90;;;;;;4975158;28;20304;-79
2023/05/12 08:42:30;;;;;;;50.38;44.78;;;14.60;99.90;;;;;;4961178;28;20343;-79
2023/05/12 08:44:59;;;;;;;48.67;43.53;;;14.60;99.90;;;;;;4976913;28;20117;-79
2023/05/12 08:47:26;;;;;;;47.25;42.45;;;14.70;99.90;;;;;;4977406;28;20544;-79
2023/05/12 08:49:59;;;;;;;48.30;43.38;;;14.80;99.90;;;;;;4990896;28;20409;-80
2023/05/12 08:52:28;;;;;;;46.72;42.08;;;14.80;99.90;;;;;;4977571;28;20104;-79
2023/05/12 08:54:55;;;;;;;47.15;42.08;;;14.80;99.90;;;;;;4977276;28;20046;-79
2023/05/12 08:57:23;;;;;;;46.17;41.47;;;14.90;99.90;;;;;;4977239;28;20050;-79
2023/05/12 08:59:55;;;;;;;45.40;40.78;;;14.90;99.90;;;;;;5007511;28;20042;-79
2023/05/12 09:02:22;;;;;;;45.25;40.80;;;15.10;99.90;;;;;;4957454;28;20081;-79
2023/05/12 09:04:49;;;;;;;45.22;40.60;;;15.20;99.90;;;;;;4971753;28;20065;-78
2023/05/12 09:07:17;;;;;;;44.20;39.78;;;15.30;99.90;;;;;;4975590;28;20042;-79
2023/05/12 09:09:45;;;;;;;43.28;38.83;;;15.40;99.90;;;;;;4961139;28;20050;-79
2023/05/12 09:12:15;;;;;;;41.10;37.10;;;15.50;99.90;;;;;;4972487;28;20394;-79
2023/05/12 09:14:44;;;;;;;39.33;35.58;;;15.70;99.90;;;;;;4963705;28;20145;-79
2023/05/12 09:17:11;;;;;;;39.05;35.30;;;15.80;99.90;;;;;;4977093;28;20049;-79
2023/05/12 09:19:37;;;;;;;38.92;35.38;;;15.90;99.90;;;;;;4966299;28;20073;-79
2023/05/12 09:22:03;;;;;;;37.08;33.38;;;16.00;99.90;;;;;;4982016;28;20401;-80
2023/05/12 09:24:35;;;;;;;33.92;30.77;;;16.10;99.90;;;;;;4964327;28;20046;-79
2023/05/12 09:27:01;;;;;;;33.60;30.55;;;16.10;99.90;;;;;;4967611;28;20041;-79
2023/05/12 09:29:31;;;;;;;36.15;32.78;;;16.20;99.90;;;;;;4966896;28;20046;-79
2023/05/12 09:32:00;;;;;;;34.53;31.33;;;16.30;99.90;;;;;;5000876;28;20490;-79
2023/05/12 09:34:34;;;;;;;32.55;29.63;;;16.40;99.90;;;;;;4986094;28;20046;-78
2023/05/12 09:37:04;;;;;;;31.98;29.08;;;16.50;99.90;;;;;;4967577;28;20053;-78
2023/05/12 09:39:30;;;;;;;31.38;28.48;;;16.60;99.90;;;;;;4997583;28;20119;-79
2023/05/12 09:41:56;;;;;;;29.17;26.58;;;16.70;99.90;;;;;;4998050;28;20041;-79
2023/05/12 09:44:27;;;;;;;28.40;25.77;;;16.80;99.90;;;;;;5001380;28;20046;-79
2023/05/12 09:46:53;;;;;;;29.63;26.98;;;16.90;99.90;;;;;;4951852;28;20531;-79
2023/05/12 09:49:25;;;;;;;31.20;28.40;;;17.00;99.90;;;;;;4990524;28;20136;-79
2023/05/12 09:52:03;;;;;;;32.20;29.20;;;17.00;99.90;;;;;;4978061;28;20531;-79
2023/05/12 09:54:30;;;;;;;31.38;28.48;;;17.10;99.90;;;;;;4963207;28;20056;-79
2023/05/12 09:57:01;;;;;;;28.10;25.60;;;17.20;99.90;;;;;;4983202;28;20072;-79
2023/05/12 09:59:32;;;;;;;27.90;25.45;;;17.30;99.90;;;;;;4967856;28;20484;-79
2023/05/12 10:02:00;;;;;;;24.77;22.65;;;17.50;99.90;;;;;;5000721;28;20777;-78
2023/05/12 10:04:30;;;;;;;21.73;19.75;;;17.60;99.90;;;;;;4982898;28;20041;-79
2023/05/12 10:06:59;;;;;;;10.90;9.90;;;17.70;99.90;;;;;;4967406;28;20485;-79
2023/05/12 10:09:32;;;;;;;15.52;14.13;;;17.80;99.90;;;;;;4965253;28;20400;-79
2023/05/12 10:11:59;;;;;;;22.40;20.50;;;17.90;99.90;;;;;;4977967;28;20139;-80
2023/05/12 10:14:27;;;;;;;23.58;21.50;;;18.10;99.90;;;;;;4974680;28;20129;-79
2023/05/12 10:16:54;;;;;;;18.35;16.55;;;18.40;99.90;;;;;;4963785;28;21144;-79
2023/05/12 10:19:24;;;;;;;13.27;12.07;;;18.40;99.90;;;;;;4964818;28;20054;-78
2023/05/12 10:21:54;;;;;;;7.32;6.57;;;18.60;99.90;;;;;;4966068;28;20045;-79
2023/05/12 10:24:24;;;;;;;13.32;12.20;;;18.70;99.90;;;;;;4980604;28;20038;-78
2023/05/12 10:26:50;;;;;;;13.55;12.43;;;18.80;99.90;;;;;;4987535;28;20064;-79
2023/05/12 10:29:31;;;;;;;14.82;13.52;;;18.90;99.90;;;;;;4996878;28;20135;-78
2023/05/12 10:32:00;;;;;;;9.27;8.32;;;19.00;99.90;;;;;;4954192;28;20903;-78
2023/05/12 10:34:40;;;;;;;10.30;9.40;;;19.10;99.90;;;;;;4982162;28;20038;-79
2023/05/12 10:37:12;;;;;;;16.92;15.43;;;19.10;99.90;;;;;;4989179;28;20038;-79
2023/05/12 10:39:49;;;;;;;18.30;16.52;;;19.20;99.90;;;;;;4965672;28;20072;-79
2023/05/12 10:42:25;;;;;;;18.60;16.95;;;19.20;99.90;;;;;;4957866;28;20104;-79
2023/05/12 10:44:55;;;;;;;19.40;17.70;;;19.40;99.90;;;;;;4967343;28;20135;-81
2023/05/12 10:47:28;;;;;;;;;;;19.50;99.90;;;;;;4998394;28;20060;-79
2023/05/12 10:49:58;;;;;;;24.05;22.05;;;19.60;99.90;;;;;;4982183;28;19948;-79
2023/05/12 10:52:24;;;;;;;22.95;21.05;;;19.70;99.90;;;;;;4966660;28;20124;-79
2023/05/12 10:55:02;;;;;;;18.95;17.45;;;19.80;99.90;;;;;;4959016;28;20048;-79
2023/05/12 10:57:29;;;;;;;21.60;19.83;;;19.90;99.90;;;;;;4965991;28;20121;-80
2023/05/12 11:00:02;;;;;;;20.38;18.58;;;19.90;99.90;;;;;;4982127;28;20056;-78
2023/05/12 11:02:32;;;;;;;19.58;17.92;;;19.90;99.90;;;;;;4983549;28;20057;-79
2023/05/12 11:05:08;;;;;;;16.48;14.98;;;20.10;99.90;;;;;;4982879;28;20145;-78
2023/05/12 11:07:37;;;;;;;19.52;17.88;;;20.20;99.90;;;;;;4980062;28;20386;-79
2023/05/12 11:10:04;;;;;;;19.08;17.33;;;20.40;99.90;;;;;;4996426;28;20100;-79
2023/05/12 11:12:34;;;;;;;20.60;18.90;;;20.50;99.90;;;;;;4966479;28;20692;-79
2023/05/12 11:15:01;;;;;;;16.85;15.13;;;20.70;99.90;;;;;;4957435;28;20086;-79
2023/05/12 11:17:27;;;;;;;16.77;15.45;;;20.70;99.90;;;;;;4996847;28;20034;-78
2023/05/12 11:19:53;;;;;;;19.90;18.20;;;20.70;99.90;;;;;;4976348;28;20045;-78
2023/05/12 11:22:23;;;;;;;20.80;19.10;;;20.60;99.90;;;;;;4984368;28;20038;-78
2023/05/12 11:24:51;;;;;;;19.52;17.83;;;20.60;99.90;;;;;;4958225;28;20045;-78
2023/05/12 11:27:19;;;;;;;18.30;16.80;;;20.50;99.90;;;;;;4965971;28;20049;-78
2023/05/12 11:29:58;;;;;;;18.23;16.63;;;20.50;99.90;;;;;;4980444;28;20416;-78
2023/05/12 11:32:27;;;;;;;17.75;16.15;;;20.50;99.90;;;;;;4996554;28;20080;-79
2023/05/12 11:34:52;;;;;;;18.55;17.05;;;20.60;99.90;;;;;;4979878;28;20041;-78
2023/05/12 11:37:19;;;;;;;13.77;12.43;;;20.80;99.90;;;;;;4982561;28;20048;-81
2023/05/12 11:39:45;;;;;;;14.32;13.10;;;20.80;99.90;;;;;;4982167;28;20061;-79
2023/05/12 11:42:11;;;;;;;19.90;18.23;;;20.90;99.90;;;;;;4981928;28;20448;-78
2023/05/12 11:44:47;;;;;;;17.23;15.80;;;21.00;99.90;;;;;;4959778;28;20061;-78
2023/05/12 11:47:14;;;;;;;17.65;16.15;;;21.10;99.90;;;;;;4962199;28;20054;-79
2023/05/12 11:49:53;;;;;;;18.20;16.65;;;21.10;99.90;;;;;;4978536;28;20053;-79
2023/05/12 11:52:21;;;;;;;18.73;17.10;;;21.30;99.90;;;;;;4965604;28;20137;-79
2023/05/12 11:54:57;;;;;;;19.48;17.77;;;21.30;99.90;;;;;;4965419;28;20052;-78
2023/05/12 11:57:34;;;;;;;17.65;16.15;;;21.30;99.90;;;;;;4956405;28;20051;-78
2023/05/12 12:00:10;;;;;;;16.08;14.45;;;21.30;99.90;;;;;;4966515;28;20064;-78
2023/05/12 12:02:37;;;;;;;6.95;6.25;;;21.50;99.90;;;;;;4995763;28;20062;-78
2023/05/12 12:05:04;;;;;;;9.30;7.95;;;21.70;99.90;;;;;;4957303;28;20492;-77
2023/05/12 12:07:36;;;;;;;8.18;7.47;;;21.70;99.00;;;;;;4965024;28;20108;-76
2023/05/12 12:10:12;;;;;;;9.27;8.38;;;21.80;97.80;;;;;;4964066;28;20125;-76
2023/05/12 12:12:39;;;;;;;10.38;9.48;;;21.80;98.80;;;;;;4964970;28;20054;-77
2023/05/12 12:15:06;;;;;;;11.07;10.07;;;21.90;99.30;;;;;;4980155;28;20080;-76
2023/05/12 12:17:32;;;;;;;12.00;10.90;;;21.90;98.60;;;;;;4990009;28;20065;-77
2023/05/12 12:19:58;;;;;;;9.63;8.80;;;22.00;98.20;;;;;;4980539;28;20053;-77
2023/05/12 12:22:24;;;;;;;13.05;10.02;;;22.00;98.50;;;;;;4993531;28;20053;-77
2023/05/12 12:24:49;;;;;;;5.55;4.90;;;22.00;98.00;;;;;;4964342;28;20050;-77
2023/05/12 12:27:15;;;;;;;6.25;4.90;;;22.00;94.90;;;;;;4965451;28;20665;-79
2023/05/12 12:29:44;;;;;;;8.15;5.55;;;22.10;90.40;;;;;;4964956;28;20146;-81